D/T METAR WX W/DIR W/SPE G/SPE TEMP DEWP
7/12/19 19:50 EGKA 071950Z 22012KT 9999 BKN016 11/09 Q1012 SW (220°) 13.8mph 11°C 9°C
7/12/19 19:20 EGKA 071920Z 22013KT 9999 BKN023 10/09 Q1013 SW (220°) 15.0mph 10°C 9°C
7/12/19 18:20 EGKA 071820Z 22011KT 9999 BKN026 10/09 Q1013 SW (220°) 12.7mph 10°C 9°C
7/12/19 17:50 EGKA 071750Z 22011KT 9999 BKN028 10/08 Q1014 SW (220°) 12.7mph 10°C 8°C
7/12/19 16:50 EGKA 071650Z 22009KT 9999 BKN026 10/08 Q1014 SW (220°) 10.4mph 10°C 8°C
7/12/19 16:20 EGKA 071620Z 24012KT 9999 BKN028 10/07 Q1014 WSW (240°) 13.8mph 10°C 7°C
7/12/19 15:50 EGKA 071550Z 24014KT 9999 BKN026 10/07 Q1014 WSW (240°) 16.1mph 10°C 7°C
7/12/19 15:20 EGKA 071520Z 23011KT 9999 BKN032 10/08 Q1014 SW (230°) 12.7mph 10°C 8°C
7/12/19 14:50 EGKA 071450Z 23011KT 9999 BKN031 10/07 Q1014 SW (230°) 12.7mph 10°C 7°C
7/12/19 14:20 EGKA 071420Z 21011KT 9999 BKN032 11/07 Q1014 SSW (210°) 12.7mph 11°C 7°C
7/12/19 13:50 EGKA 071350Z 22008KT 9999 BKN034 11/06 Q1014 SW (220°) 9.2mph 11°C 6°C
7/12/19 12:50 EGKA 071250Z 24009KT 9999 BKN035 11/06 Q1015 WSW (240°) 10.4mph 11°C 6°C
7/12/19 12:20 EGKA 071220Z 24009KT 9999 BKN035 11/07 Q1015 WSW (240°) 10.4mph 11°C 7°C
7/12/19 11:50 EGKA 071150Z 23006KT 9999 BKN036 10/08 Q1015 SW (230°) 6.9mph 10°C 8°C
7/12/19 11:20 EGKA 071120Z 25003KT 9999 BKN038 10/08 Q1015 WSW (250°) 3.5mph 10°C 8°C
7/12/19 10:50 EGKA 071050Z 24003KT 9999 BKN036 09/08 Q1015 WSW (240°) 3.5mph 9°C 8°C
7/12/19 10:20 EGKA 071020Z 25005KT 9999 BKN032 09/07 Q1016 WSW (250°) 5.8mph 9°C 7°C
7/12/19 09:50 EGKA 070950Z 28006KT 9999 BKN032 09/08 Q1016 W (280°) 6.9mph 9°C 8°C
7/12/19 08:50 EGKA 070850Z 23005KT 9999 BKN036 08/07 Q1015 SW (230°) 5.8mph 8°C 7°C
6/12/19 19:50 EGKA 061950Z 25009KT 9999 SCT032 10/08 Q1007 WSW (250°) 10.4mph 10°C 8°C
6/12/19 19:20 EGKA 061920Z 25007KT 9999 SCT032 09/08 Q1007 WSW (250°) 8.1mph 9°C 8°C
6/12/19 18:20 EGKA 061820Z 27010KT 9999 FEW018 SCT024 10/08 Q1005 W (270°) 11.5mph 10°C 8°C
6/12/19 17:50 EGKA 061750Z 25013KT 9999 SCT015 11/09 Q1005 WSW (250°) 15.0mph 11°C 9°C
6/12/19 17:20 EGKA 061720Z 25017KT 9999 BKN012 11/10 Q1005 WSW (250°) 19.6mph 11°C 10°C
6/12/19 16:50 EGKA 061650Z 24018KT 9999 SCT010 11/10 Q1004 WSW (240°) 20.7mph 11°C 10°C
6/12/19 16:20 EGKA 061620Z 25017KT 9000 4500E FEW007 SCT014 11/10 Q1004 WSW (250°) 19.6mph 11°C 10°C
6/12/19 15:50 EGKA 061550Z 25019KT 9000 4500E FEW007 SCT011 11/10 Q1003 WSW (250°) 21.9mph 11°C 10°C
6/12/19 15:20 EGKA 061520Z 24017G27KT 9000 4500E FEW007 SCT010 12/11 Q1003 WSW (240°) 19.6mph 31.1mph 12°C 11°C
6/12/19 14:50 EGKA 061450Z 23016KT 8000 FEW005 BKN007 12/11 Q1004 SW (230°) 18.4mph 12°C 11°C
6/12/19 14:20 EGKA 061420Z 23017G28KT 5000 BKN006 12/11 Q1004 SW (230°) 19.6mph 32.2mph 12°C 11°C
6/12/19 13:50 EGKA 061350Z 23020KT 4500 BR BKN005 12/11 Q1004 REDZ BR SW (230°) 23.0mph 12°C 11°C
6/12/19 13:20 EGKA 061320Z 23018G28KT 4500 BR OVC005 12/11 Q1005 BR SW (230°) 20.7mph 32.2mph 12°C 11°C
6/12/19 12:50 EGKA 061250Z 23022G32KT 2000 OVC006 12/12 Q1005 SW (230°) 25.3mph 36.8mph 12°C 12°C
6/12/19 12:20 EGKA 061220Z 23021G31KT 1500 -RADZ OVC005 12/11 Q1005 -RA -DZ SW (230°) 24.2mph 35.7mph 12°C 11°C
6/12/19 11:50 EGKA 061150Z 23019G29KT 1500 -RADZ OVC005 12/11 Q1006 -RA -DZ SW (230°) 21.9mph 33.4mph 12°C 11°C
6/12/19 11:20 EGKA 061120Z 23020G30KT 1500 -RADZ OVC005 12/11 Q1007 -RA -DZ SW (230°) 23.0mph 34.5mph 12°C 11°C
6/12/19 10:50 EGKA 061050Z 23019G29KT 1500 -RADZ OVC005 12/11 Q1007 -RA -DZ SW (230°) 21.9mph 33.4mph 12°C 11°C
6/12/19 09:50 EGKA 060950Z 22019G33KT 3000 -RADZ OVC005 11/11 Q1008 -RA -DZ SW (220°) 21.9mph 38.0mph 11°C 11°C
5/12/19 19:50 EGKA 051950Z 22015G25KT 9999 FEW019 10/08 Q1017 SW (220°) 17.3mph 28.8mph 10°C 8°C
5/12/19 19:20 EGKA 051920Z 23016KT 9999 FEW020 10/08 Q1017 SW (230°) 18.4mph 10°C 8°C
5/12/19 18:20 EGKA 051820Z 22013KT 9000 -RA NSC 10/09 Q1017 -RA SW (220°) 15.0mph 10°C 9°C
5/12/19 17:50 EGKA 051750Z 23015KT 9999 FEW014 10/08 Q1017 SW (230°) 17.3mph 10°C 8°C
5/12/19 17:20 EGKA 051720Z 22014KT 9999 FEW013 10/08 Q1017 SW (220°) 16.1mph 10°C 8°C
5/12/19 16:50 EGKA 051650Z 22012KT 9999 FEW013 10/08 Q1017 SW (220°) 13.8mph 10°C 8°C
5/12/19 16:20 EGKA 051620Z 22012KT 9999 FEW013 10/08 Q1018 SW (220°) 13.8mph 10°C 8°C
5/12/19 15:50 EGKA 051550Z 22012KT 9999 FEW013 10/08 Q1018 SW (220°) 13.8mph 10°C 8°C
5/12/19 15:20 EGKA 051520Z 24010KT 9999 FEW013 10/08 Q1019 WSW (240°) 11.5mph 10°C 8°C
5/12/19 14:50 EGKA 051450Z 23009KT 9999 FEW013 10/08 Q1019 SW (230°) 10.4mph 10°C 8°C